Weather at Alexandroupoli University Hospital Heliport

Public forecast

Using degrees Celsius for public forecast. Weather courtesy of forecast.io.

Closest aviation weather report (METAR) to Alexandroupoli University Hospital Heliport

Closest report is Alexandroupoli Democritus Airport, 6.9 nm (12.7 km) E.

2024/06/19 07:20 (retrieved 33 minutes ago)

LGAL 190720Z 05014KT CAVOK 30/13 Q1017

Closest aviation forecast (TAF) to Alexandroupoli University Hospital Heliport

Closest forecast is Kavala Alexander the Great International Airport, 53.9 nm (99.8 km) W.

2024/06/19 06:13 (retrieved 2 hours ago)

TAF LGKV 190500Z 1906/2006 VRB03KT 9999 FEW030 TEMPO 1910/1918 24013KT SCT030 SCT080